Time;durP1;ratioP1;P1;durP2;ratioP2;P2;SDS_P1;SDS_P2;PMS_P1;PMS_P2;Temp;Humidity;BMP_temperature;BMP_pressure;BME280_temperature;BME280_humidity;BME280_pressure;Samples;Min_cycle;Max_cycle;Signal;HPM_P1;HPM_P2
2021/04/21 07:03:44;;;;;;;23.27;10.63;;;16.40;98.80;;;;;;6096432;23;20196;-70
2021/04/21 07:06:13;;;;;;;25.73;11.33;;;16.30;99.40;;;;;;6096148;23;20179;-69
2021/04/21 07:08:39;;;;;;;20.90;10.23;;;16.60;98.40;;;;;;6089476;23;20200;-70
2021/04/21 07:11:08;;;;;;;21.50;11.03;;;17.10;98.20;;;;;;6068782;23;20188;-70
2021/04/21 07:13:37;;;;;;;19.77;10.33;;;17.50;97.00;;;;;;6068878;23;20187;-69
2021/04/21 07:16:08;;;;;;;18.83;10.17;;;18.00;96.40;;;;;;6069295;23;20188;-69
2021/04/21 07:18:37;;;;;;;24.20;11.57;;;18.40;95.10;;;;;;6068550;23;20776;-70
2021/04/21 07:21:07;;;;;;;20.27;10.63;;;18.90;94.70;;;;;;6068360;23;20580;-69
2021/04/21 07:23:36;;;;;;;23.67;12.33;;;19.20;94.00;;;;;;6068657;23;20184;-69
2021/04/21 07:26:04;;;;;;;24.07;11.20;;;19.40;93.60;;;;;;6068699;23;20189;-70
2021/04/21 07:28:31;;;;;;;24.93;12.13;;;19.50;93.10;;;;;;6068390;23;20211;-70
2021/04/21 07:31:11;;;;;;;22.58;10.65;;;19.80;93.10;;;;;;6068574;23;20690;-70
2021/04/21 07:33:39;;;;;;;19.88;10.57;;;19.80;92.50;;;;;;6068866;23;20181;-70
2021/04/21 07:36:11;;;;;;;21.67;10.32;;;19.70;92.40;;;;;;6068115;23;20180;-70
2021/04/21 07:38:40;;;;;;;22.05;10.63;;;19.90;92.10;;;;;;6066414;23;20207;-70
2021/04/21 07:41:06;;;;;;;18.77;9.98;;;20.10;91.60;;;;;;6066889;23;20227;-70
2021/04/21 07:43:38;;;;;;;19.27;10.80;;;20.10;90.90;;;;;;6067504;23;20706;-70
2021/04/21 07:46:05;;;;;;;20.00;10.57;;;20.40;90.90;;;;;;6069121;23;20263;-70
2021/04/21 07:48:45;;;;;;;18.73;9.25;;;20.60;90.20;;;;;;6068478;23;20207;-70
2021/04/21 07:51:36;;;;;;;16.88;8.60;;;20.50;89.70;;;;;;6068903;23;20180;-70
2021/04/21 07:54:06;;;;;;;19.05;10.05;;;20.50;89.30;;;;;;6068866;23;20190;-70
2021/04/21 07:56:35;;;;;;;17.73;9.77;;;20.60;88.80;;;;;;6068582;23;20191;-70
2021/04/21 07:59:18;;;;;;;19.30;9.60;;;20.10;88.70;;;;;;6068554;23;20679;-70
2021/04/21 08:01:46;;;;;;;20.65;10.13;;;20.10;90.00;;;;;;6068710;23;20211;-70
2021/04/21 08:04:18;;;;;;;19.13;9.77;;;20.40;88.40;;;;;;6068594;23;20181;-70
2021/04/21 08:06:46;;;;;;;16.98;9.65;;;20.60;86.60;;;;;;6068317;23;20308;-70
2021/04/21 08:09:13;;;;;;;20.67;9.38;;;20.60;84.90;;;;;;6068701;23;20239;-70
2021/04/21 08:11:39;;;;;;;19.20;9.70;;;20.40;86.80;;;;;;6068729;23;20189;-69
2021/04/21 08:14:05;;;;;;;17.60;9.85;;;20.40;85.80;;;;;;6068604;23;20191;-70
2021/04/21 08:16:35;;;;;;;15.73;9.07;;;20.40;84.70;;;;;;6068294;23;20190;-70
2021/04/21 08:19:12;;;;;;;17.35;8.95;;;20.40;83.60;;;;;;6068425;23;20200;-70
2021/04/21 08:21:40;;;;;;;17.45;9.02;;;20.50;84.70;;;;;;6068265;23;20208;-70
2021/04/21 08:24:09;;;;;;;17.70;9.13;;;20.60;83.00;;;;;;6062856;23;20533;-70
2021/04/21 08:26:35;;;;;;;18.38;9.27;;;20.60;83.00;;;;;;6066808;23;20562;-71
2021/04/21 08:29:03;;;;;;;18.13;9.50;;;20.50;84.00;;;;;;6067204;23;20208;-69
2021/04/21 08:31:30;;;;;;;15.15;8.38;;;20.60;83.90;;;;;;6066832;23;20243;-72
2021/04/21 08:33:56;;;;;;;17.50;9.10;;;20.80;83.50;;;;;;6067043;23;20191;-72
2021/04/21 08:36:22;;;;;;;19.00;9.10;;;20.90;84.30;;;;;;6066649;23;20184;-70
2021/04/21 08:38:49;;;;;;;16.70;8.55;;;21.30;82.20;;;;;;6067005;23;20260;-72
2021/04/21 08:41:18;;;;;;;16.00;8.18;;;21.20;82.20;;;;;;6064550;23;20540;-73
2021/04/21 08:43:47;;;;;;;18.75;8.68;;;20.90;84.50;;;;;;6068082;23;20184;-68
2021/04/21 08:46:14;;;;;;;16.13;8.85;;;21.30;82.10;;;;;;6068280;23;20263;-69
2021/04/21 08:48:41;;;;;;;15.35;7.88;;;21.50;81.10;;;;;;6067967;23;20210;-68
2021/04/21 08:51:08;;;;;;;19.63;9.27;;;21.50;81.70;;;;;;6068247;23;20512;-68
2021/04/21 08:53:36;;;;;;;15.00;7.65;;;21.40;80.10;;;;;;6068172;23;20187;-68
2021/04/21 08:56:05;;;;;;;11.57;7.35;;;21.20;81.00;;;;;;6067904;23;20184;-69
2021/04/21 08:58:33;;;;;;;15.57;8.00;;;20.90;82.40;;;;;;6067942;23;20283;-68
2021/04/21 09:01:00;;;;;;;13.68;7.53;;;20.60;81.30;;;;;;6067959;23;20215;-68
2021/04/21 09:03:27;;;;;;;15.87;8.10;;;20.40;81.80;;;;;;6067604;23;20255;-68
2021/04/21 09:05:53;;;;;;;22.07;8.50;;;20.10;82.70;;;;;;6068120;23;20185;-68
2021/04/21 09:08:20;;;;;;;18.73;7.53;;;19.60;83.90;;;;;;6067890;23;20204;-68
2021/04/21 09:10:48;;;;;;;14.30;7.47;;;19.10;84.70;;;;;;6067776;23;20184;-68
2021/04/21 09:13:14;;;;;;;14.17;7.77;;;19.00;86.90;;;;;;6067772;23;20186;-68
2021/04/21 09:15:42;;;;;;;15.93;8.43;;;19.00;86.80;;;;;;6067937;23;20243;-68
2021/04/21 09:18:09;;;;;;;15.37;7.83;;;19.10;86.40;;;;;;6069295;23;20185;-69
2021/04/21 09:20:44;;;;;;;19.80;8.47;;;19.00;85.70;;;;;;6069561;23;20192;-68
2021/04/21 09:23:12;;;;;;;15.57;7.87;;;19.00;86.20;;;;;;6070091;23;20184;-68
2021/04/21 09:25:40;;;;;;;11.97;6.80;;;19.00;85.80;;;;;;6069756;23;20271;-68
2021/04/21 09:28:08;;;;;;;15.53;6.90;;;19.10;86.30;;;;;;6069929;23;20188;-69
2021/04/21 09:30:36;;;;;;;13.37;6.93;;;19.30;85.20;;;;;;6069710;23;20186;-69
2021/04/21 09:33:05;;;;;;;12.27;6.70;;;19.40;84.10;;;;;;6069575;23;20180;-68
2021/04/21 09:35:34;;;;;;;12.73;5.87;;;19.40;83.10;;;;;;6068805;23;20666;-68
2021/04/21 09:38:05;;;;;;;12.17;6.80;;;19.00;85.50;;;;;;6068914;23;20500;-68
2021/04/21 09:40:44;;;;;;;12.60;6.43;;;19.20;84.60;;;;;;6069334;23;20243;-69
2021/04/21 09:43:12;;;;;;;11.57;6.17;;;18.90;85.00;;;;;;6069037;23;20489;-68
2021/04/21 09:45:41;;;;;;;15.17;6.97;;;18.30;86.60;;;;;;6069509;23;20184;-68
2021/04/21 09:48:14;;;;;;;10.13;6.13;;;18.70;86.80;;;;;;6069293;23;20470;-68
2021/04/21 09:50:42;;;;;;;14.67;7.03;;;18.80;85.40;;;;;;6069854;23;20199;-68
2021/04/21 09:53:22;;;;;;;13.97;6.90;;;18.70;84.80;;;;;;6069610;23;20180;-68
2021/04/21 09:56:08;;;;;;;13.50;6.77;;;18.70;87.40;;;;;;6069735;23;20595;-68
2021/04/21 09:58:38;;;;;;;13.20;6.67;;;18.60;85.70;;;;;;6069746;23;20283;-68
2021/04/21 10:01:21;;;;;;;13.43;6.90;;;18.00;87.40;;;;;;6069802;23;20207;-69
2021/04/21 10:04:05;;;;;;;10.53;6.63;;;17.90;88.20;;;;;;6069199;23;20192;-69
2021/04/21 10:06:32;;;;;;;14.13;6.87;;;17.70;88.60;;;;;;6069612;23;20488;-68
2021/04/21 10:08:58;;;;;;;14.90;6.67;;;17.70;88.40;;;;;;6069337;23;20204;-68
2021/04/21 10:11:25;;;;;;;13.80;7.13;;;17.70;89.00;;;;;;6069771;23;20181;-68
2021/04/21 10:13:52;;;;;;;11.77;6.10;;;17.70;88.70;;;;;;6069372;23;20180;-68
2021/04/21 10:16:19;;;;;;;12.13;6.03;;;17.80;88.50;;;;;;6069680;23;20212;-68
2021/04/21 10:18:46;;;;;;;13.83;6.97;;;17.60;89.40;;;;;;6069104;23;20210;-68
2021/04/21 10:21:14;;;;;;;13.93;6.70;;;17.60;89.20;;;;;;6069265;23;20672;-68
2021/04/21 10:23:42;;;;;;;10.50;5.73;;;17.80;89.60;;;;;;6069249;23;20636;-68
2021/04/21 10:26:10;;;;;;;14.43;7.00;;;17.90;88.80;;;;;;6069600;23;20255;-68
2021/04/21 10:28:38;;;;;;;12.40;7.37;;;17.90;89.40;;;;;;6068820;23;20208;-68
2021/04/21 10:31:06;;;;;;;14.03;7.00;;;17.90;88.40;;;;;;6069065;23;20320;-68
2021/04/21 10:33:33;;;;;;;13.70;7.27;;;17.80;89.00;;;;;;6069174;23;20188;-68
2021/04/21 10:36:00;;;;;;;13.37;6.70;;;17.90;88.70;;;;;;6069471;23;20180;-68
2021/04/21 10:38:29;;;;;;;13.60;6.67;;;18.10;88.70;;;;;;6069162;23;20292;-68
2021/04/21 10:41:21;;;;;;;14.17;6.73;;;18.20;88.20;;;;;;6068892;23;20632;-68
2021/04/21 10:43:48;;;;;;;14.40;7.33;;;18.10;87.40;;;;;;6069373;23;20631;-68
2021/04/21 10:46:14;;;;;;;13.33;6.33;;;17.90;86.80;;;;;;6069356;23;20185;-68
2021/04/21 10:48:42;;;;;;;13.77;6.67;;;18.00;87.70;;;;;;6069175;23;20219;-68
2021/04/21 10:51:35;;;;;;;13.43;7.47;;;18.10;88.70;;;;;;6068956;23;20243;-67
2021/04/21 10:54:03;;;;;;;14.03;7.20;;;18.20;86.80;;;;;;6069422;23;20540;-67
2021/04/21 10:56:30;;;;;;;14.57;8.30;;;18.20;88.00;;;;;;6069403;23;20232;-68
2021/04/21 10:58:59;;;;;;;14.87;7.93;;;18.20;87.10;;;;;;6068939;23;20207;-68
2021/04/21 11:01:30;;;;;;;14.83;7.60;;;18.40;87.50;;;;;;6068924;23;20697;-68
2021/04/21 11:03:56;;;;;;;12.30;7.37;;;18.30;86.50;;;;;;6068650;23;20189;-68
2021/04/21 11:06:48;;;;;;;17.17;7.90;;;18.10;86.70;;;;;;6067041;23;20189;-68
2021/04/21 11:09:16;;;;;;;12.90;7.13;;;18.30;88.30;;;;;;6067516;23;20524;-67
2021/04/21 11:11:46;;;;;;;14.87;7.70;;;18.30;87.40;;;;;;6068348;23;20185;-67
2021/04/21 11:14:15;;;;;;;15.17;8.10;;;18.30;87.30;;;;;;6066681;23;20187;-67
2021/04/21 11:16:43;;;;;;;13.90;7.73;;;18.40;86.70;;;;;;6067824;23;20180;-67
2021/04/21 11:19:31;;;;;;;14.73;6.97;;;18.50;88.00;;;;;;6067469;23;20211;-67
2021/04/21 11:22:30;;;;;;;16.57;7.27;;;18.60;88.50;;;;;;6068027;23;20212;-67
2021/04/21 11:25:21;;;;;;;16.90;8.80;;;18.50;88.20;;;;;;6068034;23;20200;-67
2021/04/21 11:27:47;;;;;;;14.77;7.73;;;18.70;87.40;;;;;;6068001;23;20184;-69
2021/04/21 11:30:55;;;;;;;17.83;7.93;;;19.00;87.30;;;;;;6067923;23;20204;-68
2021/04/21 11:33:49;;;;;;;12.77;7.27;;;19.20;86.70;;;;;;6064398;23;20195;-67
2021/04/21 11:36:35;;;;;;;14.17;8.13;;;18.80;86.90;;;;;;6067815;23;20247;-67
2021/04/21 11:39:01;;;;;;;12.17;7.53;;;18.80;86.70;;;;;;6068269;23;20215;-67
2021/04/21 11:41:43;;;;;;;13.90;8.53;;;18.90;86.50;;;;;;6067674;23;20242;-67
2021/04/21 11:44:10;;;;;;;20.60;9.03;;;18.90;87.40;;;;;;6067587;23;20187;-68
2021/04/21 11:46:58;;;;;;;18.63;9.70;;;18.90;84.70;;;;;;6066880;23;20200;-67
2021/04/21 11:50:02;;;;;;;21.27;8.57;;;18.80;85.30;;;;;;6067638;23;20200;-67
2021/04/21 11:52:54;;;;;;;15.80;8.97;;;18.80;85.40;;;;;;6067151;23;20184;-67
2021/04/21 11:55:35;;;;;;;14.13;8.27;;;18.80;85.90;;;;;;6059131;23;20184;-68
2021/04/21 11:58:05;;;;;;;14.30;8.20;;;19.00;85.20;;;;;;6065414;23;20187;-67
2021/04/21 12:00:34;;;;;;;14.30;7.80;;;19.00;83.50;;;;;;6065196;23;20188;-74
2021/04/21 12:03:02;;;;;;;11.67;7.17;;;18.70;83.50;;;;;;6065438;23;20287;-67
2021/04/21 12:05:31;;;;;;;13.73;7.47;;;18.50;84.00;;;;;;6065907;23;20200;-67
2021/04/21 12:07:58;;;;;;;14.33;7.37;;;18.40;85.00;;;;;;6065632;23;20239;-68
2021/04/21 12:10:29;;;;;;;14.57;6.97;;;18.40;84.80;;;;;;6067544;23;20200;-67
2021/04/21 12:13:11;;;;;;;14.40;7.83;;;18.30;84.80;;;;;;6067361;23;20219;-67
2021/04/21 12:15:38;;;;;;;15.67;7.77;;;18.30;85.00;;;;;;6067069;23;20636;-67
2021/04/21 12:18:05;;;;;;;14.47;7.50;;;18.30;84.50;;;;;;6065570;23;20651;-68
2021/04/21 12:20:32;;;;;;;16.53;8.27;;;18.20;85.60;;;;;;6067243;23;20211;-68
2021/04/21 12:22:59;;;;;;;13.50;7.20;;;18.30;84.60;;;;;;6067323;23;20208;-68
2021/04/21 12:25:28;;;;;;;14.73;7.27;;;18.30;85.10;;;;;;6068457;23;20191;-68
2021/04/21 12:27:56;;;;;;;14.20;7.40;;;18.50;85.80;;;;;;6067923;23;20636;-68
2021/04/21 12:30:28;;;;;;;14.33;7.77;;;18.60;84.60;;;;;;6067568;23;20340;-68
2021/04/21 12:32:54;;;;;;;17.67;7.30;;;18.50;83.40;;;;;;6068125;23;20232;-68
2021/04/21 12:35:22;;;;;;;11.60;7.13;;;18.50;85.90;;;;;;6066926;23;20516;-68
2021/04/21 12:37:56;;;;;;;11.97;7.20;;;18.60;85.00;;;;;;6067783;23;20184;-68
2021/04/21 12:40:24;;;;;;;16.10;8.23;;;18.50;84.10;;;;;;6068077;23;20204;-68
2021/04/21 12:42:52;;;;;;;14.70;7.77;;;18.50;85.70;;;;;;6067492;23;20710;-68
2021/04/21 12:45:27;;;;;;;14.67;8.10;;;18.50;86.00;;;;;;6068269;23;20187;-68
2021/04/21 12:47:53;;;;;;;18.30;8.37;;;18.40;85.60;;;;;;6067351;23;20528;-68
2021/04/21 12:50:30;;;;;;;13.63;7.23;;;18.40;86.40;;;;;;6067264;23;20690;-67
2021/04/21 12:53:11;;;;;;;14.60;7.73;;;18.50;86.60;;;;;;6067651;23;20206;-68
2021/04/21 12:55:37;;;;;;;14.50;7.60;;;18.30;86.30;;;;;;6067974;23;20184;-68
2021/04/21 12:58:09;;;;;;;17.00;7.20;;;18.20;87.50;;;;;;6068069;23;20239;-68
2021/04/21 13:00:36;;;;;;;12.87;6.90;;;18.10;87.50;;;;;;6068548;23;20180;-68
2021/04/21 13:03:03;;;;;;;19.27;9.23;;;18.10;87.50;;;;;;6067617;23;20536;-67
2021/04/21 13:05:47;;;;;;;14.70;7.77;;;18.10;87.90;;;;;;6067933;23;20683;-68
2021/04/21 13:08:24;;;;;;;15.37;7.00;;;17.90;88.50;;;;;;6068023;23;20512;-68
2021/04/21 13:10:52;;;;;;;13.57;7.23;;;17.90;88.30;;;;;;6068229;23;20552;-68
2021/04/21 13:13:23;;;;;;;15.20;7.37;;;18.00;88.30;;;;;;6068219;23;20184;-68
2021/04/21 13:15:50;;;;;;;13.57;7.70;;;18.10;87.70;;;;;;6067858;23;20504;-68
2021/04/21 13:18:16;;;;;;;13.30;7.87;;;18.20;86.20;;;;;;6067925;23;20499;-68
2021/04/21 13:20:46;;;;;;;13.37;6.60;;;18.10;86.60;;;;;;6067945;23;20703;-68
2021/04/21 13:23:15;;;;;;;15.27;7.33;;;18.00;88.30;;;;;;6067672;23;20232;-68
2021/04/21 13:25:54;;;;;;;12.63;7.30;;;18.00;87.00;;;;;;6068285;23;20188;-68
2021/04/21 13:28:21;;;;;;;12.90;7.43;;;18.10;86.80;;;;;;6067774;23;20207;-68
2021/04/21 13:44:04;;;;;;;10.73;6.77;;;18.10;85.20;;;;;;5131028;27;20555;-68
2021/04/21 13:46:30;;;;;;;13.23;7.20;;;18.00;86.80;;;;;;5110533;28;20206;-68
2021/04/21 13:48:57;;;;;;;12.37;6.83;;;18.10;86.60;;;;;;5102291;28;20218;-68
2021/04/21 13:51:23;;;;;;;12.23;6.90;;;18.10;85.70;;;;;;5090022;28;20213;-68
2021/04/21 13:53:49;;;;;;;10.70;6.90;;;18.00;85.20;;;;;;5089728;28;20207;-68
2021/04/21 13:56:16;;;;;;;10.30;6.43;;;17.90;84.90;;;;;;5089995;28;20203;-68
2021/04/21 13:58:42;;;;;;;10.67;6.17;;;17.80;85.60;;;;;;5089719;28;20218;-68
2021/04/21 14:01:09;;;;;;;9.27;5.87;;;17.90;85.20;;;;;;5089959;28;20211;-68
2021/04/21 14:03:35;;;;;;;11.33;6.17;;;18.00;85.00;;;;;;5089859;28;20210;-68
2021/04/21 14:06:01;;;;;;;10.57;5.87;;;18.20;84.80;;;;;;5089948;28;20214;-68
2021/04/21 14:08:27;;;;;;;10.40;5.97;;;18.30;84.30;;;;;;5089546;28;20227;-68
2021/04/21 14:10:54;;;;;;;9.53;5.60;;;18.30;85.40;;;;;;5089993;28;20211;-68
2021/04/21 14:13:20;;;;;;;10.80;5.90;;;18.20;86.20;;;;;;5089490;28;20226;-68
2021/04/21 14:15:46;;;;;;;12.90;6.77;;;18.00;88.20;;;;;;5089270;28;20202;-68
2021/04/21 14:18:13;;;;;;;12.80;6.90;;;17.90;88.40;;;;;;5089202;28;20207;-68
2021/04/21 14:20:39;;;;;;;10.37;6.07;;;17.70;88.10;;;;;;5089352;28;20704;-67
2021/04/21 14:23:06;;;;;;;11.40;6.07;;;17.60;89.10;;;;;;5089176;28;20211;-68
2021/04/21 14:25:32;;;;;;;10.60;6.33;;;17.60;89.00;;;;;;5089687;28;20203;-68
2021/04/21 14:27:58;;;;;;;11.17;6.33;;;17.60;88.50;;;;;;5089355;28;20574;-68
2021/04/21 14:30:25;;;;;;;11.30;6.80;;;17.60;89.60;;;;;;5089345;28;20230;-68
2021/04/21 14:32:51;;;;;;;12.30;7.03;;;17.50;90.40;;;;;;5089318;28;20242;-67
2021/04/21 14:35:18;;;;;;;11.60;6.80;;;17.50;91.30;;;;;;5089303;28;20210;-68
2021/04/21 14:37:45;;;;;;;13.53;7.00;;;17.30;91.70;;;;;;5089018;28;20738;-68
2021/04/21 14:40:13;;;;;;;12.17;6.67;;;17.20;92.00;;;;;;5089125;28;20229;-68
2021/04/21 14:42:39;;;;;;;12.00;6.50;;;17.00;92.10;;;;;;5089207;28;20787;-68
2021/04/21 14:45:07;;;;;;;12.53;6.87;;;16.80;92.40;;;;;;5075495;28;20218;-68
2021/04/21 14:47:33;;;;;;;13.87;6.63;;;16.70;93.00;;;;;;5075563;28;20211;-68
2021/04/21 14:50:00;;;;;;;12.63;6.87;;;16.70;93.30;;;;;;5075145;28;20234;-68
2021/04/21 14:52:27;;;;;;;12.67;7.57;;;16.80;93.60;;;;;;5075487;28;20243;-68
2021/04/21 14:54:54;;;;;;;11.90;6.43;;;16.80;93.50;;;;;;5075707;28;20203;-68
2021/04/21 14:57:20;;;;;;;14.93;7.13;;;16.80;93.60;;;;;;5075470;28;20207;-68
2021/04/21 14:59:47;;;;;;;13.83;7.63;;;16.70;93.80;;;;;;5075352;28;20223;-68
2021/04/21 15:02:13;;;;;;;13.27;7.40;;;16.60;93.90;;;;;;5075321;28;20265;-68
2021/04/21 15:04:40;;;;;;;13.27;7.20;;;16.50;93.50;;;;;;5074868;28;20211;-68
2021/04/21 15:07:07;;;;;;;16.70;7.97;;;16.30;94.00;;;;;;5075218;28;20557;-68
2021/04/21 15:09:36;;;;;;;18.20;7.10;;;16.30;94.30;;;;;;5075270;28;20228;-68
2021/04/21 15:12:02;;;;;;;13.77;7.57;;;16.30;94.80;;;;;;5075006;28;20266;-68
2021/04/21 15:14:29;;;;;;;13.20;7.03;;;16.40;94.80;;;;;;5074941;28;20207;-68
2021/04/21 15:16:56;;;;;;;17.37;7.80;;;16.50;95.10;;;;;;5075094;28;20211;-68
2021/04/21 15:19:22;;;;;;;14.67;6.57;;;16.40;94.90;;;;;;5074731;28;20223;-68
2021/04/21 15:21:48;;;;;;;17.57;8.00;;;16.30;95.60;;;;;;5075036;28;20339;-68
2021/04/21 15:24:15;;;;;;;15.53;8.10;;;16.30;95.60;;;;;;5075026;28;20403;-68
2021/04/21 15:26:42;;;;;;;14.43;7.50;;;16.10;95.80;;;;;;5075037;28;20210;-68
2021/04/21 15:29:09;;;;;;;15.13;7.90;;;16.10;96.40;;;;;;5074827;28;20227;-68
2021/04/21 15:31:40;;;;;;;11.47;6.70;;;16.00;96.40;;;;;;5074607;28;20207;-68
2021/04/21 15:34:07;;;;;;;14.60;7.50;;;15.90;96.50;;;;;;5074842;28;20210;-68
2021/04/21 15:36:36;;;;;;;12.00;6.57;;;15.80;96.40;;;;;;5074936;28;20203;-68
2021/04/21 15:39:05;;;;;;;16.57;6.43;;;15.80;96.80;;;;;;5074696;28;20223;-68
2021/04/21 15:41:32;;;;;;;10.70;6.20;;;15.90;96.20;;;;;;5074564;28;20207;-68
2021/04/21 15:43:59;;;;;;;13.60;6.80;;;15.80;96.30;;;;;;5074211;28;20231;-69
2021/04/21 15:46:27;;;;;;;13.90;6.43;;;15.90;96.00;;;;;;5074355;28;20223;-68
2021/04/21 15:48:54;;;;;;;12.03;6.27;;;15.80;95.20;;;;;;5074623;28;20230;-68
2021/04/21 15:51:23;;;;;;;9.83;5.80;;;15.80;95.40;;;;;;5074499;28;20203;-68
2021/04/21 15:53:49;;;;;;;9.83;5.80;;;15.90;96.10;;;;;;5074444;28;20306;-68
2021/04/21 15:56:17;;;;;;;10.93;5.30;;;15.70;96.10;;;;;;5073375;28;20222;-68
2021/04/21 15:58:43;;;;;;;11.97;5.33;;;15.60;96.40;;;;;;5074041;28;20234;-68
2021/04/21 16:01:11;;;;;;;7.37;4.40;;;15.50;95.80;;;;;;5074488;28;20207;-68
2021/04/21 16:03:38;;;;;;;8.10;3.80;;;15.50;94.60;;;;;;5074238;28;20210;-68
2021/04/21 16:06:09;;;;;;;9.13;4.17;;;15.50;94.90;;;;;;5074099;28;20562;-68
2021/04/21 16:08:35;;;;;;;5.97;3.67;;;15.50;95.10;;;;;;5073946;28;20230;-68
2021/04/21 16:11:02;;;;;;;8.53;3.80;;;15.50;95.00;;;;;;5073769;28;20211;-68
2021/04/21 16:13:28;;;;;;;9.43;3.93;;;15.60;95.10;;;;;;5073794;28;20231;-68
2021/04/21 16:15:54;;;;;;;7.33;4.20;;;15.40;95.10;;;;;;5073969;28;20285;-68
2021/04/21 16:18:21;;;;;;;9.20;4.10;;;15.40;94.40;;;;;;5073784;28;20249;-68
2021/04/21 16:20:48;;;;;;;8.73;4.17;;;15.30;95.00;;;;;;5074001;28;20203;-68
2021/04/21 16:23:14;;;;;;;8.43;3.90;;;15.40;95.40;;;;;;5073894;28;20203;-67
2021/04/21 16:25:41;;;;;;;5.97;3.43;;;15.40;96.00;;;;;;5073720;28;20211;-68
2021/04/21 16:28:08;;;;;;;7.80;3.33;;;15.40;95.20;;;;;;5073372;28;20243;-68
2021/04/21 16:30:35;;;;;;;8.33;3.73;;;15.50;95.70;;;;;;5073801;28;20214;-67
2021/04/21 16:33:02;;;;;;;6.90;3.37;;;15.40;95.60;;;;;;5073569;28;20248;-68
2021/04/21 16:35:29;;;;;;;6.80;3.50;;;15.50;95.60;;;;;;5073559;28;20211;-68
2021/04/21 16:37:55;;;;;;;7.17;3.40;;;15.50;94.90;;;;;;5073688;28;20211;-68
2021/04/21 16:40:22;;;;;;;5.03;3.00;;;15.40;94.90;;;;;;5073257;28;20223;-68
2021/04/21 16:42:48;;;;;;;5.43;3.17;;;15.40;95.30;;;;;;5073223;28;20215;-68
2021/04/21 16:45:16;;;;;;;6.57;3.57;;;15.20;95.20;;;;;;5073282;28;20206;-68
2021/04/21 16:47:43;;;;;;;7.10;3.50;;;15.20;95.80;;;;;;5073215;28;20567;-68
2021/04/21 16:50:12;;;;;;;5.93;2.67;;;15.10;95.90;;;;;;5073446;28;20285;-68
2021/04/21 16:52:43;;;;;;;4.53;2.50;;;15.10;96.20;;;;;;5073082;28;20223;-68
2021/04/21 16:55:11;;;;;;;5.73;2.90;;;15.20;96.20;;;;;;5073186;28;20211;-68
2021/04/21 16:57:41;;;;;;;7.63;3.10;;;15.20;95.90;;;;;;5073262;28;20211;-68
2021/04/21 17:00:13;;;;;;;4.40;2.30;;;15.10;96.10;;;;;;5073019;28;20250;-68
2021/04/21 17:02:42;;;;;;;3.63;2.13;;;15.00;96.00;;;;;;5073104;28;20203;-68
2021/04/21 17:05:10;;;;;;;5.37;2.27;;;14.90;96.20;;;;;;5073128;28;20215;-68
2021/04/21 17:07:36;;;;;;;4.33;2.37;;;14.80;96.10;;;;;;5072748;28;20576;-68
2021/04/21 17:10:05;;;;;;;5.03;1.87;;;14.70;95.90;;;;;;5072830;28;20220;-68
2021/04/21 17:12:32;;;;;;;3.37;2.03;;;14.60;96.00;;;;;;5072969;28;20709;-68
2021/04/21 17:15:04;;;;;;;5.90;2.33;;;14.60;95.80;;;;;;5073056;28;20207;-68
2021/04/21 17:17:30;;;;;;;6.83;2.03;;;14.40;96.00;;;;;;5072798;28;20658;-68
2021/04/21 17:19:57;;;;;;;5.43;1.70;;;14.40;95.90;;;;;;5072654;28;20644;-68
2021/04/21 17:22:26;;;;;;;4.27;1.93;;;14.40;96.00;;;;;;5072633;28;20543;-68
2021/04/21 17:24:53;;;;;;;4.53;1.93;;;14.30;95.90;;;;;;5072823;28;20207;-67
2021/04/21 17:27:20;;;;;;;3.03;1.50;;;14.40;95.70;;;;;;5072842;28;20214;-68
2021/04/21 17:29:47;;;;;;;3.30;1.70;;;14.30;95.80;;;;;;5072556;28;20701;-68
2021/04/21 17:32:13;;;;;;;3.67;1.70;;;14.20;95.90;;;;;;5072791;28;20228;-68
2021/04/21 17:34:39;;;;;;;2.83;1.53;;;14.10;95.60;;;;;;5072613;28;20204;-68
2021/04/21 17:37:05;;;;;;;6.13;2.00;;;14.10;95.90;;;;;;5072904;28;20207;-68
2021/04/21 17:39:32;;;;;;;4.23;1.40;;;14.10;96.10;;;;;;5072879;28;20231;-68
2021/04/21 17:41:58;;;;;;;3.87;2.20;;;14.00;96.20;;;;;;5072725;28;20312;-68
2021/04/21 17:44:26;;;;;;;2.23;1.70;;;13.90;96.50;;;;;;5072823;28;20225;-67
2021/04/21 17:46:52;;;;;;;4.70;2.03;;;13.80;96.30;;;;;;5072740;28;20211;-66
2021/04/21 17:49:18;;;;;;;6.07;2.70;;;13.80;96.50;;;;;;5072664;28;20227;-66
2021/04/21 17:51:44;;;;;;;4.43;2.20;;;13.70;96.80;;;;;;5072262;28;20662;-67
2021/04/21 17:54:10;;;;;;;5.40;2.17;;;13.60;97.10;;;;;;5072428;28;20234;-67
2021/04/21 17:56:37;;;;;;;4.30;2.10;;;13.60;96.80;;;;;;5072593;28;20204;-66
2021/04/21 17:59:05;;;;;;;4.60;2.00;;;13.60;96.60;;;;;;5072021;28;20269;-67
2021/04/21 18:01:32;;;;;;;5.00;2.10;;;13.60;96.50;;;;;;5072355;28;20216;-67
2021/04/21 18:03:58;;;;;;;8.47;1.90;;;13.50;96.20;;;;;;5072215;28;20221;-67
2021/04/21 18:06:25;;;;;;;3.50;1.73;;;13.40;96.20;;;;;;5072569;28;20227;-67
2021/04/21 18:08:51;;;;;;;8.03;1.70;;;13.30;96.30;;;;;;5072092;28;20697;-66
2021/04/21 18:11:17;;;;;;;5.83;1.80;;;13.30;96.40;;;;;;5072216;28;20546;-67
2021/04/21 18:13:43;;;;;;;8.00;2.63;;;13.30;96.60;;;;;;5072356;28;20235;-67
2021/04/21 18:16:10;;;;;;;7.80;1.80;;;13.00;96.60;;;;;;5072111;28;20208;-67
2021/04/21 18:18:40;;;;;;;5.20;1.67;;;12.90;96.90;;;;;;5073054;28;20230;-67
2021/04/21 18:21:06;;;;;;;5.87;2.10;;;12.80;97.20;;;;;;5076098;28;20730;-67
2021/04/21 18:23:32;;;;;;;5.10;2.10;;;12.80;97.00;;;;;;5076011;28;20577;-67
2021/04/21 18:25:59;;;;;;;7.43;2.03;;;12.80;97.00;;;;;;5075995;28;20211;-67
2021/04/21 18:28:25;;;;;;;6.20;2.40;;;12.80;97.10;;;;;;5075460;28;20223;-67
2021/04/21 18:30:51;;;;;;;2.93;1.20;;;12.70;97.20;;;;;;5075573;28;20210;-67
2021/04/21 18:33:18;;;;;;;6.83;1.50;;;12.60;97.30;;;;;;5075804;28;20234;-67
2021/04/21 18:35:45;;;;;;;3.80;1.67;;;12.60;97.40;;;;;;5075992;28;20215;-67
2021/04/21 18:38:12;;;;;;;4.33;1.60;;;12.30;97.90;;;;;;5075830;28;20199;-67
2021/04/21 18:40:38;;;;;;;4.67;1.53;;;12.30;98.10;;;;;;5075759;28;20260;-67
2021/04/21 18:43:05;;;;;;;7.10;1.63;;;12.20;98.10;;;;;;5075793;28;20302;-67
2021/04/21 18:45:33;;;;;;;8.87;1.53;;;12.10;98.30;;;;;;5075866;28;20203;-67
2021/04/21 18:48:00;;;;;;;3.90;1.40;;;12.10;98.30;;;;;;5075143;28;20238;-67
2021/04/21 18:50:27;;;;;;;5.83;1.10;;;12.10;98.50;;;;;;5075336;28;20685;-67
2021/04/21 18:52:54;;;;;;;8.10;1.20;;;12.00;99.00;;;;;;5075377;28;20246;-67
2021/04/21 18:55:24;;;;;;;5.23;1.17;;;11.80;99.00;;;;;;5066085;28;20203;-67
2021/04/21 18:57:51;;;;;;;3.23;1.10;;;11.80;99.20;;;;;;5054749;28;20299;-67
2021/04/21 19:00:20;;;;;;;4.10;1.00;;;11.70;99.40;;;;;;5055888;28;20286;-67
2021/04/21 19:02:47;;;;;;;4.10;1.30;;;11.60;99.50;;;;;;5054732;28;20204;-68
2021/04/21 19:05:14;;;;;;;4.10;1.43;;;11.60;99.80;;;;;;5054949;28;20207;-67
2021/04/21 19:07:41;;;;;;;3.17;1.17;;;11.50;99.90;;;;;;5055060;28;20662;-67
2021/04/21 19:10:10;;;;;;;6.97;1.50;;;11.40;99.90;;;;;;5055022;28;20235;-67
2021/04/21 19:12:36;;;;;;;3.87;1.43;;;11.20;99.90;;;;;;5055130;28;20716;-67
2021/04/21 19:15:04;;;;;;;10.63;2.10;;;11.20;99.90;;;;;;5055363;28;20211;-67
2021/04/21 19:17:30;;;;;;;7.53;1.70;;;11.20;99.20;;;;;;5055009;28;20615;-68
2021/04/21 19:19:57;;;;;;;3.90;1.00;;;11.00;99.40;;;;;;5055047;28;20724;-67
2021/04/21 19:22:23;;;;;;;3.30;1.30;;;10.90;99.50;;;;;;5055341;28;20208;-68
2021/04/21 19:24:53;;;;;;;6.30;1.37;;;10.80;99.10;;;;;;5055134;28;20227;-67
2021/04/21 19:27:20;;;;;;;4.57;1.10;;;10.70;99.40;;;;;;5055074;28;20232;-68
2021/04/21 19:29:46;;;;;;;6.30;1.20;;;10.60;99.50;;;;;;5054805;28;20220;-68
2021/04/21 19:32:15;;;;;;;5.47;1.30;;;10.60;98.90;;;;;;5054918;28;20233;-68
2021/04/21 19:34:41;;;;;;;4.83;1.50;;;10.50;98.60;;;;;;5054707;28;20294;-67
2021/04/21 19:37:07;;;;;;;5.37;1.00;;;10.50;98.10;;;;;;5054651;28;20229;-67
2021/04/21 19:39:34;;;;;;;1.93;1.00;;;10.50;98.00;;;;;;5054261;28;20224;-67
2021/04/21 19:42:00;;;;;;;7.00;1.10;;;10.30;98.50;;;;;;5054565;28;20215;-67
2021/04/21 19:44:27;;;;;;;4.97;1.27;;;10.30;98.50;;;;;;5054584;28;20211;-67
2021/04/21 19:46:55;;;;;;;2.13;1.10;;;10.30;98.00;;;;;;5054734;28;20219;-68
2021/04/21 19:49:21;;;;;;;4.20;1.10;;;10.30;97.70;;;;;;5054410;28;20231;-68
2021/04/21 19:51:48;;;;;;;4.27;0.90;;;10.10;97.20;;;;;;5054214;28;20655;-68
2021/04/21 19:54:15;;;;;;;5.83;1.60;;;10.10;97.00;;;;;;5054090;28;20231;-68
2021/04/21 19:56:43;;;;;;;7.87;1.07;;;10.10;97.30;;;;;;5054659;28;20196;-68
2021/04/21 19:59:10;;;;;;;4.30;0.83;;;10.10;96.90;;;;;;5054554;28;20258;-69
2021/04/21 20:01:37;;;;;;;6.00;0.93;;;10.10;96.60;;;;;;5054178;28;20243;-68
2021/04/21 20:04:04;;;;;;;6.03;1.00;;;10.00;96.60;;;;;;5053843;28;20234;-69
2021/04/21 20:06:30;;;;;;;3.53;0.80;;;9.90;97.20;;;;;;5054371;28;20204;-68